createdAt,value
2018-07-19T00:01:17.719Z,0.97
2018-07-19T00:03:47.492Z,1.63
2018-07-19T00:06:16.763Z,1.53
2018-07-19T00:08:45.849Z,2.27
2018-07-19T00:11:14.910Z,1.10
2018-07-19T00:13:44.545Z,1.63
2018-07-19T00:16:13.849Z,1.10
2018-07-19T00:18:42.922Z,0.87
2018-07-19T00:21:12.602Z,0.90
2018-07-19T00:23:42.319Z,0.93
2018-07-19T00:26:12.145Z,1.00
2018-07-19T00:28:41.724Z,1.07
2018-07-19T00:31:11.283Z,1.33
2018-07-19T00:33:40.586Z,0.80
2018-07-19T00:36:09.897Z,2.57
2018-07-19T00:38:38.969Z,0.80
2018-07-19T00:41:08.935Z,0.87
2018-07-19T00:43:38.214Z,1.90
2018-07-19T00:46:07.299Z,0.90
2018-07-19T00:48:36.640Z,0.90
2018-07-19T00:51:06.410Z,1.43
2018-07-19T00:53:35.711Z,1.17
2018-07-19T00:56:05.353Z,1.10
2018-07-19T00:58:34.614Z,1.83
2018-07-19T01:01:03.952Z,4.83
2018-07-19T01:03:33.771Z,2.30
2018-07-19T01:06:03.467Z,1.37
2018-07-19T01:08:32.974Z,0.97
2018-07-19T01:11:02.284Z,1.10
2018-07-19T01:13:31.596Z,1.13
2018-07-19T01:16:00.664Z,2.60
2018-07-19T01:18:30.293Z,1.73
2018-07-19T01:20:59.977Z,1.40
2018-07-19T01:23:29.399Z,1.23
2018-07-19T01:25:58.896Z,1.13
2018-07-19T01:28:28.210Z,1.20
2018-07-19T01:30:57.488Z,1.10
2018-07-19T01:33:26.805Z,1.40
2018-07-19T01:35:56.519Z,0.93
2018-07-19T01:38:25.808Z,0.93
2018-07-19T01:40:54.886Z,1.33
2018-07-19T01:43:23.978Z,0.93
2018-07-19T01:45:53.367Z,1.20
2018-07-19T01:48:22.439Z,0.93
2018-07-19T01:50:52.243Z,0.97
2018-07-19T01:53:22.025Z,1.10
2018-07-19T01:55:51.307Z,1.53
2018-07-19T01:58:20.619Z,1.13
2018-07-19T02:00:50.177Z,1.63
2018-07-19T02:03:19.478Z,1.13
2018-07-19T02:05:48.799Z,0.80
2018-07-19T02:08:18.679Z,1.50
2018-07-19T02:10:48.596Z,1.43
2018-07-19T02:13:17.876Z,1.50
2018-07-19T02:15:47.204Z,1.70
2018-07-19T02:18:16.484Z,1.00
2018-07-19T02:20:45.831Z,0.90
2018-07-19T02:23:15.713Z,2.00
2018-07-19T02:25:45.699Z,2.20
2018-07-19T02:28:15.496Z,1.63
2018-07-19T02:30:44.797Z,1.17
2018-07-19T02:33:14.111Z,3.07
2018-07-19T02:35:43.851Z,1.10
2018-07-19T02:38:13.156Z,0.80
2018-07-19T02:40:42.461Z,1.00
2018-07-19T02:43:11.761Z,1.23
2018-07-19T02:45:41.065Z,1.10
2018-07-19T02:48:10.621Z,0.97
2018-07-19T02:50:40.223Z,1.13
2018-07-19T02:53:09.552Z,0.90
2018-07-19T02:55:38.863Z,1.73
2018-07-19T02:58:08.358Z,1.03
2018-07-19T03:00:37.427Z,1.13
2018-07-19T03:03:06.632Z,0.80
2018-07-19T03:05:35.900Z,0.77
2018-07-19T03:08:04.993Z,1.10
2018-07-19T03:10:34.725Z,1.20
2018-07-19T03:13:04.037Z,2.23
2018-07-19T03:15:33.137Z,1.00
2018-07-19T03:18:02.454Z,1.53
2018-07-19T03:20:31.774Z,1.80
2018-07-19T03:23:01.108Z,1.20
2018-07-19T03:25:31.085Z,0.90
2018-07-19T03:28:00.615Z,1.07
2018-07-19T03:30:30.125Z,2.70
2018-07-19T03:32:59.202Z,1.00
2018-07-19T03:35:29.321Z,1.30
2018-07-19T03:37:58.594Z,1.63
2018-07-19T03:40:27.902Z,1.27
2018-07-19T03:42:57.424Z,1.03
2018-07-19T03:45:26.705Z,1.50
2018-07-19T03:47:55.847Z,1.40
2018-07-19T03:50:25.200Z,1.00
2018-07-19T03:52:54.231Z,1.53
2018-07-19T03:55:23.950Z,3.00
2018-07-19T03:57:53.233Z,1.10
2018-07-19T04:00:22.547Z,1.20
2018-07-19T04:02:51.869Z,1.30
2018-07-19T04:05:21.204Z,1.43
2018-07-19T04:07:50.720Z,1.10
2018-07-19T04:10:20.180Z,2.63
2018-07-19T04:12:49.720Z,1.20
2018-07-19T04:15:19.229Z,0.80
2018-07-19T04:17:55.759Z,1.43
2018-07-19T04:20:28.907Z,1.70
2018-07-19T04:22:58.223Z,1.17
2018-07-19T04:25:28.428Z,0.90
2018-07-19T04:27:58.335Z,1.03
2018-07-19T04:30:27.868Z,1.50
2018-07-19T04:32:57.177Z,1.60
2018-07-19T04:35:26.931Z,1.37
2018-07-19T04:37:56.460Z,2.23
2018-07-19T04:40:25.749Z,1.33
2018-07-19T04:42:54.819Z,1.30
2018-07-19T04:45:23.907Z,1.57
2018-07-19T04:47:53.238Z,1.20
2018-07-19T04:50:22.566Z,1.40
2018-07-19T04:52:52.058Z,0.90
2018-07-19T04:55:21.869Z,1.17
2018-07-19T04:57:51.396Z,1.60
2018-07-19T05:00:21.041Z,1.33
2018-07-19T05:02:50.420Z,1.27
2018-07-19T05:05:19.754Z,1.73
2018-07-19T05:07:49.313Z,1.10
2018-07-19T05:10:19.072Z,1.30
2018-07-19T05:12:48.811Z,3.40
2018-07-19T05:15:18.353Z,1.40
2018-07-19T05:17:47.689Z,1.23
2018-07-19T05:20:17.143Z,2.07
2018-07-19T05:22:46.731Z,1.20
2018-07-19T05:25:16.597Z,1.30
2018-07-19T05:27:45.890Z,1.73
2018-07-19T05:30:15.231Z,1.50
2018-07-19T05:32:44.543Z,2.20
2018-07-19T05:35:13.837Z,1.20
2018-07-19T05:37:43.547Z,1.10
2018-07-19T05:40:12.835Z,1.73
2018-07-19T05:42:41.914Z,1.13
2018-07-19T05:45:11.241Z,1.47
2018-07-19T05:47:40.813Z,1.87
2018-07-19T05:50:10.340Z,4.77
2018-07-19T05:52:40.267Z,4.40
2018-07-19T05:55:09.947Z,5.20
2018-07-19T05:57:39.368Z,1.83
2018-07-19T06:00:08.897Z,16.50
2018-07-19T06:02:38.228Z,2.23
2018-07-19T06:05:07.558Z,3.07
2018-07-19T06:07:37.328Z,3.77
2018-07-19T06:10:06.849Z,6.00
2018-07-19T06:12:35.912Z,18.27
2018-07-19T06:15:06.452Z,42.50
2018-07-19T06:17:35.549Z,22.97
2018-07-19T06:20:04.983Z,47.03
2018-07-19T06:22:34.071Z,66.20
2018-07-19T06:25:03.184Z,58.40
2018-07-19T06:27:32.506Z,57.67
2018-07-19T06:30:02.042Z,68.53
2018-07-19T06:32:31.365Z,56.10
2018-07-19T06:35:00.702Z,72.13
2018-07-19T06:37:30.006Z,59.70
2018-07-19T06:39:59.365Z,67.93
2018-07-19T06:42:28.935Z,64.63
2018-07-19T06:44:58.777Z,50.27
2018-07-19T06:47:28.619Z,56.13
2018-07-19T06:49:57.951Z,53.30
2018-07-19T06:52:27.049Z,67.57
2018-07-19T06:54:56.141Z,55.57
2018-07-19T06:57:25.713Z,60.63
2018-07-19T06:59:55.601Z,56.23
2018-07-19T07:02:24.903Z,78.17
2018-07-19T07:04:54.229Z,44.47
2018-07-19T07:07:24.136Z,48.07
2018-07-19T07:09:53.675Z,39.97
2018-07-19T07:12:22.999Z,44.20
2018-07-19T07:14:52.667Z,54.50
2018-07-19T07:17:22.405Z,60.63
2018-07-19T07:19:51.743Z,45.33
2018-07-19T07:22:21.068Z,52.23
2018-07-19T07:24:50.592Z,45.53
2018-07-19T07:27:19.878Z,38.50
2018-07-19T07:29:49.193Z,27.63
2018-07-19T07:32:19.076Z,35.63
2018-07-19T07:34:48.596Z,34.87
2018-07-19T07:37:17.938Z,35.57
2018-07-19T07:39:47.031Z,18.47
2018-07-19T07:42:16.748Z,9.80
2018-07-19T07:44:46.359Z,6.37
2018-07-19T07:47:16.105Z,9.97
2018-07-19T07:49:45.633Z,11.03
2018-07-19T07:52:15.080Z,5.20
2018-07-19T07:54:44.470Z,4.20
2018-07-19T07:57:14.008Z,9.47
2018-07-19T07:59:43.297Z,4.33
2018-07-19T08:02:13.264Z,6.80
2018-07-19T08:04:42.778Z,4.37
2018-07-19T08:07:12.358Z,5.03
2018-07-19T08:09:41.859Z,3.50
2018-07-19T08:12:11.169Z,3.07
2018-07-19T08:14:40.696Z,4.67
2018-07-19T08:17:10.231Z,6.20
2018-07-19T08:19:39.426Z,5.23
2018-07-19T08:22:08.976Z,2.73
2018-07-19T08:24:38.262Z,5.53
2018-07-19T08:27:07.353Z,3.17
2018-07-19T08:29:36.454Z,4.43
2018-07-19T08:32:06.657Z,4.13
2018-07-19T08:34:35.947Z,5.37
2018-07-19T08:37:05.629Z,5.83
2018-07-19T08:39:36.382Z,5.87
2018-07-19T08:42:05.919Z,3.07
2018-07-19T08:44:35.566Z,7.57
2018-07-19T08:47:04.764Z,4.23
2018-07-19T08:49:33.826Z,2.87
2018-07-19T08:52:02.915Z,6.43
2018-07-19T08:54:32.229Z,8.33
2018-07-19T08:57:01.526Z,3.83
2018-07-19T08:59:30.920Z,5.43
2018-07-19T09:02:00.219Z,2.87
2018-07-19T09:04:29.750Z,3.23
2018-07-19T09:06:59.550Z,4.80
2018-07-19T09:09:28.834Z,2.90
2018-07-19T09:11:58.153Z,6.13
2018-07-19T09:14:27.681Z,7.80
2018-07-19T09:16:57.204Z,3.27
2018-07-19T09:19:26.793Z,6.83
2018-07-19T09:21:56.282Z,3.33
2018-07-19T09:24:25.815Z,5.40
2018-07-19T09:26:55.120Z,4.20
2018-07-19T09:29:24.505Z,7.27
2018-07-19T09:31:54.387Z,4.87
2018-07-19T09:34:24.370Z,3.33
2018-07-19T09:36:53.666Z,7.77
2018-07-19T09:39:24.115Z,3.87
2018-07-19T09:41:53.650Z,5.40
2018-07-19T09:44:22.759Z,3.20
2018-07-19T09:46:51.822Z,3.17
2018-07-19T09:49:20.909Z,3.40
2018-07-19T09:51:49.992Z,2.53
2018-07-19T09:54:30.596Z,3.20
2018-07-19T09:57:00.301Z,3.40
2018-07-19T09:59:29.632Z,3.57
2018-07-19T10:01:58.931Z,2.97
2018-07-19T10:04:28.690Z,3.30
2018-07-19T10:06:58.230Z,14.90
2018-07-19T10:09:27.513Z,5.63
2018-07-19T10:11:57.256Z,2.87
2018-07-19T10:14:27.100Z,3.23
2018-07-19T10:16:56.624Z,3.20
2018-07-19T10:19:26.484Z,3.20
2018-07-19T10:21:55.849Z,2.70
2018-07-19T10:24:25.473Z,3.03
2018-07-19T10:26:55.213Z,8.90
2018-07-19T10:29:24.851Z,3.30
2018-07-19T10:31:54.176Z,2.23
2018-07-19T10:34:23.481Z,9.50
2018-07-19T10:36:52.833Z,4.30
2018-07-19T10:39:22.145Z,2.57
2018-07-19T10:41:51.667Z,8.00
2018-07-19T10:44:21.876Z,2.43
2018-07-19T10:46:50.943Z,2.20
2018-07-19T10:49:20.176Z,4.60
2018-07-19T10:51:49.329Z,2.33
2018-07-19T10:54:18.318Z,7.17
2018-07-19T10:56:47.661Z,5.43
2018-07-19T10:59:17.017Z,2.70
2018-07-19T11:01:46.110Z,4.47
2018-07-19T11:04:15.423Z,1.93
2018-07-19T11:06:44.731Z,1.70
2018-07-19T11:09:14.052Z,1.70
2018-07-19T11:11:43.609Z,5.23
2018-07-19T11:14:12.911Z,6.67
2018-07-19T11:16:41.981Z,2.93
2018-07-19T11:19:11.051Z,16.33
2018-07-19T11:21:40.384Z,3.43
2018-07-19T11:24:09.663Z,2.13
2018-07-19T11:26:39.039Z,2.20
2018-07-19T11:29:08.564Z,1.90
2018-07-19T11:31:37.862Z,2.40
2018-07-19T11:34:07.163Z,6.40
2018-07-19T11:36:36.452Z,7.50
2018-07-19T11:39:07.869Z,3.90
2018-07-19T11:41:37.643Z,2.80
2018-07-19T11:44:07.214Z,2.50
2018-07-19T11:46:36.343Z,2.97
2018-07-19T11:49:05.411Z,3.67
2018-07-19T11:51:34.732Z,1.50
2018-07-19T11:54:04.059Z,2.53
2018-07-19T11:56:33.136Z,1.93
2018-07-19T11:59:02.205Z,1.63
2018-07-19T12:01:31.525Z,2.53
2018-07-19T12:04:01.081Z,2.20
2018-07-19T12:06:30.616Z,2.63
2018-07-19T12:08:59.920Z,5.23
2018-07-19T12:11:29.243Z,2.00
2018-07-19T12:13:58.519Z,1.80
2018-07-19T12:16:27.600Z,3.83
2018-07-19T12:18:56.675Z,3.80
2018-07-19T12:21:26.009Z,2.00
2018-07-19T12:23:56.544Z,2.60
2018-07-19T12:26:26.019Z,2.93
2018-07-19T12:28:55.095Z,5.10
2018-07-19T12:31:24.416Z,4.07
2018-07-19T12:33:53.990Z,2.07
2018-07-19T12:36:23.520Z,2.00
2018-07-19T12:38:52.820Z,4.43
2018-07-19T12:41:21.914Z,2.40
2018-07-19T12:43:51.240Z,2.17
2018-07-19T12:46:20.943Z,3.40
2018-07-19T12:48:50.287Z,2.77
2018-07-19T12:51:19.816Z,3.50
2018-07-19T12:53:49.567Z,3.23
2018-07-19T12:56:18.665Z,3.03
2018-07-19T12:58:47.735Z,4.70
2018-07-19T13:01:16.833Z,2.30
2018-07-19T13:03:46.124Z,2.30
2018-07-19T13:06:15.420Z,9.27
2018-07-19T13:08:44.748Z,2.33
2018-07-19T13:11:14.087Z,2.27
2018-07-19T13:13:43.608Z,7.70
2018-07-19T13:16:13.136Z,4.67
2018-07-19T13:18:43.322Z,2.70
2018-07-19T13:21:12.842Z,6.40
2018-07-19T13:23:42.132Z,3.13
2018-07-19T13:26:11.490Z,2.33
2018-07-19T13:28:40.797Z,2.30
2018-07-19T13:31:09.870Z,7.33
2018-07-19T13:33:39.201Z,2.10
2018-07-19T13:36:08.499Z,3.57
2018-07-19T13:38:37.810Z,3.23
2018-07-19T13:41:07.358Z,5.40
2018-07-19T13:43:36.897Z,1.97
2018-07-19T13:46:06.430Z,1.90
2018-07-19T13:48:35.984Z,2.43
2018-07-19T13:51:05.334Z,3.27
2018-07-19T13:53:45.934Z,3.57
2018-07-19T13:56:15.564Z,1.83
2018-07-19T13:58:45.440Z,3.17
2018-07-19T14:01:14.984Z,2.40
2018-07-19T14:03:44.507Z,3.53
2018-07-19T14:06:14.069Z,2.33
2018-07-19T14:08:43.600Z,3.00
2018-07-19T14:11:13.152Z,2.00
2018-07-19T14:13:42.664Z,2.50
2018-07-19T14:16:12.210Z,2.63
2018-07-19T14:18:41.736Z,1.90
2018-07-19T14:21:11.272Z,2.83
2018-07-19T14:23:40.805Z,5.00
2018-07-19T14:26:10.353Z,4.43
2018-07-19T14:28:39.641Z,1.53
2018-07-19T14:31:09.382Z,2.23
2018-07-19T14:33:38.915Z,3.90
2018-07-19T14:36:08.493Z,3.23
2018-07-19T14:38:37.868Z,4.90
2018-07-19T14:41:07.180Z,4.20
2018-07-19T14:43:36.458Z,2.27
2018-07-19T14:46:05.780Z,5.80
2018-07-19T14:48:35.314Z,2.10
2018-07-19T14:51:04.850Z,5.60
2018-07-19T14:53:34.439Z,4.67
2018-07-19T14:56:03.971Z,2.90
2018-07-19T14:58:33.507Z,5.73
2018-07-19T15:01:03.032Z,3.87
2018-07-19T15:03:32.577Z,2.50
2018-07-19T15:06:02.105Z,2.50
2018-07-19T15:08:31.633Z,4.03
2018-07-19T15:11:01.185Z,3.50
2018-07-19T15:13:30.820Z,1.77
2018-07-19T15:16:00.299Z,8.33
2018-07-19T15:18:29.824Z,3.60
2018-07-19T15:20:59.134Z,2.70
2018-07-19T15:23:28.419Z,3.13
2018-07-19T15:25:58.483Z,8.17
2018-07-19T15:28:28.047Z,6.50
2018-07-19T15:30:57.566Z,13.23
2018-07-19T15:33:27.106Z,1.70
2018-07-19T15:35:56.620Z,2.70
2018-07-19T15:38:26.186Z,4.63
2018-07-19T15:40:55.717Z,6.77
2018-07-19T15:43:25.273Z,7.50
2018-07-19T15:45:54.826Z,2.00
2018-07-19T15:48:24.375Z,8.43
2018-07-19T15:50:53.928Z,2.07
2018-07-19T15:53:23.462Z,2.23
2018-07-19T15:55:53.004Z,3.87
2018-07-19T15:58:22.875Z,3.50
2018-07-19T16:00:52.389Z,3.13
2018-07-19T16:03:21.683Z,1.60
2018-07-19T16:05:50.765Z,2.00
2018-07-19T16:08:20.076Z,1.90
2018-07-19T16:10:49.608Z,1.83
2018-07-19T16:13:18.923Z,2.83
2018-07-19T16:15:48.227Z,1.67
2018-07-19T16:18:17.525Z,2.30
2018-07-19T16:20:46.836Z,6.93
2018-07-19T16:23:16.359Z,1.87
2018-07-19T16:25:45.873Z,1.80
2018-07-19T16:28:15.400Z,1.47
2018-07-19T16:30:44.958Z,1.30
2018-07-19T16:33:14.251Z,1.63
2018-07-19T16:35:43.560Z,1.33
2018-07-19T16:38:12.872Z,1.50
2018-07-19T16:40:42.213Z,10.10
2018-07-19T16:43:11.741Z,4.07
2018-07-19T16:45:41.030Z,1.60
2018-07-19T16:48:10.330Z,9.20
2018-07-19T16:50:39.623Z,1.87
2018-07-19T16:53:08.924Z,1.73
2018-07-19T16:55:38.436Z,0.90
2018-07-19T16:58:07.963Z,2.97
2018-07-19T17:00:43.934Z,1.83
2018-07-19T17:03:13.336Z,11.67
2018-07-19T17:05:42.434Z,1.33
2018-07-19T17:08:11.506Z,2.03
2018-07-19T17:10:40.576Z,1.70
2018-07-19T17:13:09.912Z,3.47
2018-07-19T17:15:39.472Z,2.93
2018-07-19T17:18:09.325Z,5.73
2018-07-19T17:20:38.617Z,1.43
2018-07-19T17:23:07.932Z,3.00
2018-07-19T17:25:37.447Z,3.23
2018-07-19T17:28:06.747Z,4.50
2018-07-19T17:30:36.069Z,1.53
2018-07-19T17:33:05.859Z,3.43
2018-07-19T17:35:35.187Z,4.03
2018-07-19T17:38:05.216Z,1.10
2018-07-19T17:40:35.445Z,2.03
2018-07-19T17:43:05.092Z,3.40
2018-07-19T17:45:34.684Z,1.20
2018-07-19T17:48:03.981Z,4.63
2018-07-19T17:50:33.060Z,5.30
2018-07-19T17:53:02.120Z,1.83
2018-07-19T17:55:31.199Z,5.23
2018-07-19T17:58:00.540Z,3.40
2018-07-19T18:00:30.077Z,2.50
2018-07-19T18:02:59.379Z,6.33
2018-07-19T18:05:28.463Z,1.10
2018-07-19T18:07:57.567Z,3.13
2018-07-19T18:10:26.871Z,1.17
2018-07-19T18:13:02.865Z,3.93
2018-07-19T18:15:32.391Z,1.17
2018-07-19T18:18:01.684Z,7.13
2018-07-19T18:20:30.768Z,6.37
2018-07-19T18:22:59.840Z,3.00
2018-07-19T18:25:29.160Z,2.60
2018-07-19T18:27:58.459Z,1.40
2018-07-19T18:30:27.798Z,1.47
2018-07-19T18:32:57.325Z,4.97
2018-07-19T18:35:26.658Z,1.10
2018-07-19T18:37:55.747Z,2.80
2018-07-19T18:40:25.062Z,2.37
2018-07-19T18:42:54.591Z,1.00
2018-07-19T18:45:24.126Z,1.10
2018-07-19T18:47:53.458Z,1.03
2018-07-19T18:50:22.782Z,2.00
2018-07-19T18:52:52.323Z,0.90
2018-07-19T18:55:21.738Z,2.40
2018-07-19T18:57:51.076Z,0.93
2018-07-19T19:00:20.348Z,2.30
2018-07-19T19:02:49.677Z,0.97
2018-07-19T19:05:19.193Z,1.03
2018-07-19T19:07:48.491Z,2.50
2018-07-19T19:10:17.567Z,1.20
2018-07-19T19:12:46.694Z,1.37
2018-07-19T19:15:16.039Z,2.00
2018-07-19T19:17:45.324Z,2.63
2018-07-19T19:20:14.667Z,1.10
2018-07-19T19:22:43.964Z,1.20
2018-07-19T19:25:13.276Z,3.17
2018-07-19T19:27:42.813Z,1.67
2018-07-19T19:30:12.098Z,2.20
2018-07-19T19:32:41.435Z,1.97
2018-07-19T19:35:11.275Z,3.10
2018-07-19T19:37:40.571Z,1.70
2018-07-19T19:40:09.673Z,2.10
2018-07-19T19:42:38.988Z,1.60
2018-07-19T19:45:08.526Z,1.80
2018-07-19T19:47:38.240Z,1.40
2018-07-19T19:50:07.778Z,1.77
2018-07-19T19:52:37.316Z,1.10
2018-07-19T19:55:06.620Z,3.37
2018-07-19T19:57:35.949Z,1.43
2018-07-19T20:00:05.323Z,1.10
2018-07-19T20:02:34.657Z,3.07
2018-07-19T20:05:03.966Z,17.73
2018-07-19T20:07:33.304Z,3.63
2018-07-19T20:10:02.846Z,8.60
2018-07-19T20:12:32.428Z,1.03
2018-07-19T20:15:01.701Z,1.77
2018-07-19T20:17:31.016Z,2.00
2018-07-19T20:20:00.316Z,1.33
2018-07-19T20:22:29.644Z,1.20
2018-07-19T20:24:58.944Z,0.80
2018-07-19T20:27:28.259Z,1.07
2018-07-19T20:29:57.563Z,0.93
2018-07-19T20:32:26.897Z,1.20
2018-07-19T20:34:56.191Z,1.13
2018-07-19T20:37:25.281Z,0.80
2018-07-19T20:39:54.603Z,1.07
2018-07-19T20:42:23.909Z,1.20
2018-07-19T20:44:53.231Z,4.37
2018-07-19T20:47:22.756Z,1.37
2018-07-19T20:49:52.048Z,1.00
2018-07-19T20:52:21.391Z,3.40
2018-07-19T20:54:50.749Z,1.10
2018-07-19T20:57:19.940Z,0.97
2018-07-19T20:59:49.863Z,1.50
2018-07-19T21:02:19.383Z,1.10
2018-07-19T21:04:48.450Z,1.30
2018-07-19T21:07:17.519Z,1.50
2018-07-19T21:09:46.592Z,0.97
2018-07-19T21:12:15.912Z,0.70
2018-07-19T21:14:45.223Z,1.20
2018-07-19T21:17:14.537Z,1.73
2018-07-19T21:19:44.080Z,1.40
2018-07-19T21:22:13.616Z,1.13
2018-07-19T21:24:43.965Z,1.30
2018-07-19T21:27:13.567Z,1.10
2018-07-19T21:29:43.114Z,1.23
2018-07-19T21:32:12.403Z,3.90
2018-07-19T21:34:41.495Z,1.03
2018-07-19T21:37:10.609Z,1.07
2018-07-19T21:39:39.918Z,1.40
2018-07-19T21:42:09.232Z,1.00
2018-07-19T21:44:38.547Z,1.27
2018-07-19T21:47:08.077Z,1.57
2018-07-19T21:49:37.597Z,3.30
2018-07-19T21:52:06.893Z,1.03
2018-07-19T21:54:35.990Z,0.83
2018-07-19T21:57:05.309Z,0.80
2018-07-19T21:59:34.835Z,1.27
2018-07-19T22:02:04.143Z,2.10
2018-07-19T22:04:33.235Z,1.40
2018-07-19T22:07:02.312Z,1.43
2018-07-19T22:09:31.686Z,0.87
2018-07-19T22:12:01.413Z,0.70
2018-07-19T22:14:30.689Z,3.60
2018-07-19T22:16:59.997Z,0.70
2018-07-19T22:19:29.521Z,0.83
2018-07-19T22:21:58.812Z,1.20
2018-07-19T22:24:27.897Z,0.97
2018-07-19T22:26:56.968Z,0.80
2018-07-19T22:29:26.287Z,0.80
2018-07-19T22:31:55.580Z,0.90
2018-07-19T22:34:24.897Z,1.63
2018-07-19T22:36:54.191Z,0.80
2018-07-19T22:39:23.513Z,2.03
2018-07-19T22:41:52.827Z,0.90
2018-07-19T22:44:21.975Z,1.17
2018-07-19T22:46:51.056Z,0.80
2018-07-19T22:49:20.148Z,0.93
2018-07-19T22:51:49.231Z,0.90
2018-07-19T22:54:18.293Z,0.70
2018-07-19T22:56:47.378Z,0.90
2018-07-19T22:59:16.450Z,1.77
2018-07-19T23:01:45.776Z,0.93
2018-07-19T23:04:15.089Z,7.20
2018-07-19T23:06:44.397Z,0.80
2018-07-19T23:09:13.477Z,1.07
2018-07-19T23:11:42.796Z,1.03
2018-07-19T23:14:12.714Z,1.83
2018-07-19T23:16:41.782Z,0.93
2018-07-19T23:19:11.093Z,0.90
2018-07-19T23:21:40.392Z,0.90
2018-07-19T23:24:09.485Z,1.77
2018-07-19T23:26:38.563Z,0.90
2018-07-19T23:29:07.626Z,1.80
2018-07-19T23:31:36.948Z,0.77
2018-07-19T23:34:06.393Z,1.63
2018-07-19T23:36:38.970Z,2.67
2018-07-19T23:39:16.895Z,0.90
2018-07-19T23:41:51.719Z,1.70
2018-07-19T23:44:31.430Z,0.90
2018-07-19T23:47:05.667Z,1.53
2018-07-19T23:49:34.953Z,0.70
2018-07-19T23:52:04.040Z,1.00
2018-07-19T23:54:33.112Z,1.37
2018-07-19T23:57:02.764Z,2.10
2018-07-19T23:59:31.853Z,1.43
